Time;durP1;ratioP1;P1;durP2;ratioP2;P2;SDS_P1;SDS_P2;PMS_P1;PMS_P2;Temp;Humidity;BMP_temperature;BMP_pressure;BME280_temperature;BME280_humidity;BME280_pressure;Samples;Min_cycle;Max_cycle;Signal;HPM_P1;HPM_P2
2024/04/13 00:01:45;;;;;;;6.53;3.58;;;17.50;96.70;;;;;;5378804;26;20009;-82
2024/04/13 00:04:15;;;;;;;5.55;3.28;;;17.50;96.70;;;;;;5381403;26;20036;-82
2024/04/13 00:06:45;;;;;;;6.00;3.45;;;17.50;96.70;;;;;;5379422;26;20030;-82
2024/04/13 00:09:17;;;;;;;7.35;3.58;;;17.50;96.70;;;;;;5384906;26;20003;-82
2024/04/13 00:11:47;;;;;;;5.70;3.50;;;17.50;96.70;;;;;;5410249;26;20032;-82
2024/04/13 00:14:16;;;;;;;4.43;3.30;;;17.50;96.70;;;;;;5421234;26;20029;-82
2024/04/13 00:16:45;;;;;;;7.47;3.55;;;17.40;96.70;;;;;;5383950;26;20026;-82
2024/04/13 00:19:15;;;;;;;7.07;3.53;;;17.30;96.70;;;;;;5420251;26;20077;-81
2024/04/13 00:21:47;;;;;;;4.50;3.53;;;17.20;96.70;;;;;;5410294;26;20015;-82
2024/04/13 00:24:19;;;;;;;6.20;3.97;;;17.20;96.70;;;;;;5410404;26;20006;-82
2024/04/13 00:26:48;;;;;;;4.32;3.20;;;17.10;96.70;;;;;;5410430;26;20390;-81
2024/04/13 00:29:18;;;;;;;5.88;3.70;;;17.10;96.70;;;;;;5412922;26;20027;-81
2024/04/13 00:31:47;;;;;;;5.53;3.38;;;17.00;96.70;;;;;;5379415;26;20000;-80
2024/04/13 00:34:16;;;;;;;5.57;3.40;;;17.00;96.70;;;;;;5392687;26;20000;-80
2024/04/13 00:36:46;;;;;;;4.68;3.22;;;17.00;96.70;;;;;;5433166;26;20055;-81
2024/04/13 00:39:18;;;;;;;6.50;3.45;;;17.00;96.70;;;;;;5410921;26;20011;-81
2024/04/13 00:41:48;;;;;;;4.72;3.67;;;17.00;96.70;;;;;;5401618;26;20008;-81
2024/04/13 00:44:17;;;;;;;5.05;3.42;;;17.00;96.70;;;;;;5394626;26;20015;-81
2024/04/13 00:46:47;;;;;;;4.57;3.42;;;17.00;96.70;;;;;;5410282;26;20011;-81
2024/04/13 00:49:19;;;;;;;4.32;3.70;;;16.90;96.70;;;;;;5409840;26;20008;-81
2024/04/13 00:51:52;;;;;;;5.10;3.20;;;16.90;96.70;;;;;;5390015;26;20007;-81
2024/04/13 00:54:26;;;;;;;7.05;3.30;;;16.90;96.70;;;;;;5392563;26;20008;-81
2024/04/13 00:56:56;;;;;;;4.40;3.00;;;16.90;96.70;;;;;;5376968;26;20468;-83
2024/04/13 00:59:25;;;;;;;5.85;4.05;;;16.80;96.70;;;;;;5379894;26;20003;-83
2024/04/13 01:01:59;;;;;;;5.60;3.55;;;16.80;96.70;;;;;;5407431;26;20003;-82
2024/04/13 01:04:29;;;;;;;6.75;3.60;;;16.80;96.70;;;;;;5362326;26;20007;-83
2024/04/13 01:06:58;;;;;;;7.50;3.67;;;16.70;96.70;;;;;;5387475;26;20011;-82
2024/04/13 01:09:31;;;;;;;5.55;4.20;;;16.70;96.70;;;;;;5378007;26;20076;-82
2024/04/13 01:11:59;;;;;;;5.35;3.65;;;16.60;96.70;;;;;;5413725;26;20032;-81
2024/04/13 01:14:29;;;;;;;5.18;3.65;;;16.70;96.70;;;;;;5403554;26;20000;-82
2024/04/13 01:16:59;;;;;;;5.95;3.60;;;16.60;96.70;;;;;;5380938;26;20004;-82
2024/04/13 01:19:29;;;;;;;4.35;3.60;;;16.50;96.70;;;;;;5419673;26;20172;-81
2024/04/13 01:21:58;;;;;;;7.18;3.55;;;16.50;96.70;;;;;;5417405;26;20316;-82
2024/04/13 01:24:29;;;;;;;5.15;3.67;;;16.50;96.70;;;;;;5408400;26;20015;-82
2024/04/13 01:26:58;;;;;;;5.38;3.65;;;16.50;96.70;;;;;;5407988;26;20445;-82
2024/04/13 01:29:28;;;;;;;3.55;3.25;;;16.40;96.70;;;;;;5390267;26;20054;-81
2024/04/13 01:31:58;;;;;;;7.10;3.67;;;16.40;96.70;;;;;;5380211;26;20004;-82
2024/04/13 01:34:27;;;;;;;6.93;3.50;;;16.30;96.70;;;;;;5413057;26;20003;-79
2024/04/13 01:36:58;;;;;;;4.13;3.17;;;16.30;96.70;;;;;;5379754;26;20542;-80
2024/04/13 01:39:29;;;;;;;7.00;4.03;;;16.20;96.70;;;;;;5383317;26;20003;-80
2024/04/13 01:41:59;;;;;;;5.47;3.78;;;16.10;96.70;;;;;;5380082;26;20201;-80
2024/04/13 01:44:29;;;;;;;7.93;4.13;;;16.10;96.70;;;;;;5407693;26;20026;-80
2024/04/13 01:47:01;;;;;;;5.00;4.18;;;16.10;96.70;;;;;;5377504;26;20007;-80
2024/04/13 01:49:29;;;;;;;6.78;4.30;;;16.10;96.70;;;;;;5415351;26;20015;-80
2024/04/13 01:51:58;;;;;;;8.05;4.32;;;16.10;96.70;;;;;;5376250;26;20008;-82
2024/04/13 01:54:31;;;;;;;4.40;3.47;;;16.10;96.70;;;;;;5382479;26;20523;-82
2024/04/13 01:57:00;;;;;;;4.97;3.85;;;16.10;96.70;;;;;;5405319;26;19999;-82
2024/04/13 01:59:29;;;;;;;4.18;3.50;;;16.10;96.70;;;;;;5401454;26;20014;-81
2024/04/13 02:01:59;;;;;;;4.75;3.58;;;16.10;96.70;;;;;;5401583;26;19999;-82
2024/04/13 02:04:29;;;;;;;4.63;3.45;;;16.00;96.70;;;;;;5378526;26;20000;-82
2024/04/13 02:06:57;;;;;;;6.18;2.83;;;16.00;96.70;;;;;;5382614;26;20008;-82
2024/04/13 02:09:26;;;;;;;3.63;2.97;;;16.00;96.70;;;;;;5409609;26;20085;-82
2024/04/13 02:11:58;;;;;;;6.57;3.63;;;15.90;96.70;;;;;;5370347;26;20014;-82
2024/04/13 02:14:29;;;;;;;5.88;3.30;;;15.90;96.70;;;;;;5378141;26;20011;-82
2024/04/13 02:16:59;;;;;;;5.10;3.55;;;15.90;96.70;;;;;;5398572;26;20000;-82
2024/04/13 02:19:28;;;;;;;7.03;3.80;;;15.90;96.70;;;;;;5406854;26;20420;-81
2024/04/13 02:21:59;;;;;;;4.28;2.92;;;15.90;96.70;;;;;;5386918;26;20003;-81
2024/04/13 02:24:29;;;;;;;4.45;3.40;;;15.90;96.70;;;;;;5373909;26;20475;-82
2024/04/13 02:27:06;;;;;;;5.38;3.35;;;15.90;96.70;;;;;;5405193;26;20112;-81
2024/04/13 02:29:34;;;;;;;4.88;3.30;;;15.80;96.70;;;;;;5383367;26;20015;-82
2024/04/13 02:32:05;;;;;;;6.53;3.42;;;15.80;96.70;;;;;;5381331;26;20000;-81
2024/04/13 02:34:36;;;;;;;3.85;3.22;;;15.70;96.70;;;;;;5374994;26;20008;-81
2024/04/13 02:37:04;;;;;;;5.32;3.67;;;15.70;96.70;;;;;;5373119;26;20045;-81
2024/04/13 02:39:33;;;;;;;5.70;3.80;;;15.60;96.70;;;;;;5411704;26;20003;-80
2024/04/13 02:42:05;;;;;;;5.60;3.83;;;15.50;96.70;;;;;;5401945;26;20080;-82
2024/04/13 02:44:35;;;;;;;4.53;3.17;;;15.50;96.70;;;;;;5375791;26;19999;-82
2024/04/13 02:47:04;;;;;;;5.28;3.72;;;15.50;96.70;;;;;;5403137;26;20199;-81
2024/04/13 02:49:33;;;;;;;5.70;3.55;;;15.60;96.70;;;;;;5376884;26;20007;-82
2024/04/13 02:52:03;;;;;;;4.82;3.15;;;15.50;96.70;;;;;;5409640;26;20004;-81
2024/04/13 02:54:31;;;;;;;3.80;2.92;;;15.50;96.70;;;;;;5411913;26;20018;-81
2024/04/13 02:57:04;;;;;;;4.97;3.70;;;15.40;96.70;;;;;;5410366;26;20011;-83
2024/04/13 02:59:33;;;;;;;5.15;3.65;;;15.40;96.70;;;;;;5387203;26;20043;-81
2024/04/13 03:02:03;;;;;;;4.63;3.45;;;15.40;96.70;;;;;;5381939;26;20000;-81
2024/04/13 03:04:33;;;;;;;4.45;3.78;;;15.50;96.70;;;;;;5378447;26;20014;-81
2024/04/13 03:07:02;;;;;;;5.25;3.78;;;15.50;96.70;;;;;;5391683;26;20074;-81
2024/04/13 03:09:31;;;;;;;5.45;3.88;;;15.50;96.70;;;;;;5390566;26;20774;-81
2024/04/13 03:11:59;;;;;;;5.85;4.13;;;15.40;96.70;;;;;;5419980;26;20003;-81
2024/04/13 03:14:33;;;;;;;8.05;4.72;;;15.40;96.70;;;;;;5422903;26;20712;-81
2024/04/13 03:17:02;;;;;;;7.35;4.40;;;15.40;96.70;;;;;;5409452;26;20011;-81
2024/04/13 03:19:35;;;;;;;6.78;4.95;;;15.40;96.70;;;;;;5424308;26;20003;-81
2024/04/13 03:22:04;;;;;;;7.93;4.70;;;15.30;96.70;;;;;;5410320;26;20085;-80
2024/04/13 03:24:34;;;;;;;7.63;4.68;;;15.40;96.70;;;;;;5374308;26;20004;-81
2024/04/13 03:27:05;;;;;;;6.20;4.70;;;15.30;96.70;;;;;;5408361;26;20009;-82
2024/04/13 03:29:38;;;;;;;8.70;4.28;;;15.30;96.70;;;;;;5419603;26;20017;-81
2024/04/13 03:32:10;;;;;;;6.85;5.15;;;15.20;96.70;;;;;;5376513;26;20055;-81
2024/04/13 03:34:40;;;;;;;8.55;5.60;;;15.30;96.70;;;;;;5402974;26;20003;-81
2024/04/13 03:37:09;;;;;;;7.82;4.72;;;15.30;96.70;;;;;;5418282;26;20014;-81
2024/04/13 03:39:38;;;;;;;6.40;4.68;;;15.30;96.70;;;;;;5417075;26;20073;-80
2024/04/13 03:42:08;;;;;;;8.65;5.13;;;15.30;96.70;;;;;;5393643;26;20046;-81
2024/04/13 03:44:41;;;;;;;5.60;4.78;;;15.30;96.70;;;;;;5424156;26;20015;-82
2024/04/13 03:47:10;;;;;;;5.35;4.65;;;15.20;96.70;;;;;;5412920;26;20119;-82
2024/04/13 03:49:39;;;;;;;6.35;4.65;;;15.20;96.70;;;;;;5408716;26;20019;-82
2024/04/13 03:52:10;;;;;;;5.85;4.22;;;15.20;96.70;;;;;;5416862;26;20007;-81
2024/04/13 03:54:40;;;;;;;6.38;4.55;;;15.20;96.70;;;;;;5383098;26;19996;-81
2024/04/13 03:57:09;;;;;;;5.88;4.63;;;15.20;96.70;;;;;;5377103;26;20010;-81
2024/04/13 03:59:41;;;;;;;7.95;4.85;;;15.10;96.70;;;;;;5384721;26;20065;-81
2024/04/13 04:02:10;;;;;;;5.75;4.22;;;15.20;96.70;;;;;;5418047;26;20080;-81
2024/04/13 04:04:39;;;;;;;5.07;4.40;;;15.10;96.70;;;;;;5404478;26;19999;-81
2024/04/13 04:07:10;;;;;;;6.28;4.50;;;15.10;96.70;;;;;;5378084;26;20090;-80
2024/04/13 04:09:38;;;;;;;5.47;4.35;;;15.10;96.70;;;;;;5379747;26;20007;-81
2024/04/13 04:12:09;;;;;;;9.00;4.32;;;15.10;96.70;;;;;;5377049;26;20010;-81
2024/04/13 04:14:41;;;;;;;5.53;3.92;;;15.00;96.70;;;;;;5377063;26;20000;-81
2024/04/13 04:17:11;;;;;;;8.02;4.05;;;14.90;96.70;;;;;;5403865;26;20340;-81
2024/04/13 04:19:42;;;;;;;7.15;4.35;;;14.90;96.70;;;;;;5436745;26;20019;-81
2024/04/13 04:22:12;;;;;;;5.50;3.92;;;14.90;96.70;;;;;;5418286;26;20050;-81
2024/04/13 04:24:41;;;;;;;6.95;4.20;;;14.80;96.70;;;;;;5377707;26;20000;-80
2024/04/13 04:27:10;;;;;;;6.47;4.05;;;14.80;96.70;;;;;;5378001;26;20353;-81
2024/04/13 04:29:43;;;;;;;5.85;3.97;;;14.70;96.70;;;;;;5371162;26;19996;-81
2024/04/13 04:32:12;;;;;;;5.03;3.35;;;14.70;96.70;;;;;;5382783;26;20015;-80
2024/04/13 04:34:41;;;;;;;5.75;3.55;;;14.70;96.70;;;;;;5378056;26;20076;-80
2024/04/13 04:37:10;;;;;;;6.00;3.60;;;14.70;96.70;;;;;;5388419;26;20088;-81
2024/04/13 04:39:44;;;;;;;6.38;3.80;;;14.70;96.70;;;;;;5408659;26;20010;-80
2024/04/13 04:42:13;;;;;;;5.28;3.78;;;14.70;96.70;;;;;;5406267;26;20011;-80
2024/04/13 04:44:48;;;;;;;7.25;3.60;;;14.60;96.70;;;;;;5376426;26;20000;-80
2024/04/13 04:47:16;;;;;;;4.35;3.78;;;14.70;96.70;;;;;;5376596;26;20000;-80
2024/04/13 04:49:47;;;;;;;5.55;3.90;;;14.70;96.70;;;;;;5376950;26;20314;-80
2024/04/13 04:52:17;;;;;;;7.22;4.15;;;14.70;96.70;;;;;;5400534;26;20032;-81
2024/04/13 04:54:47;;;;;;;5.82;4.18;;;14.80;96.70;;;;;;5388581;26;20597;-80
2024/04/13 04:57:19;;;;;;;4.78;4.28;;;14.80;96.70;;;;;;5379008;26;20000;-81
2024/04/13 04:59:52;;;;;;;5.90;3.85;;;14.80;96.70;;;;;;5401541;26;20036;-80
2024/04/13 05:02:20;;;;;;;6.55;4.30;;;14.70;96.70;;;;;;5374825;26;20031;-81
2024/04/13 05:04:49;;;;;;;4.35;3.95;;;14.80;96.70;;;;;;5388624;26;20001;-80
2024/04/13 05:07:19;;;;;;;6.43;4.43;;;14.70;96.70;;;;;;5413193;26;20659;-80
2024/04/13 05:09:48;;;;;;;7.47;4.05;;;14.70;96.70;;;;;;5387149;26;20109;-80
2024/04/13 05:12:17;;;;;;;5.63;4.68;;;14.80;96.70;;;;;;5382307;26;20011;-80
2024/04/13 05:14:46;;;;;;;7.47;5.10;;;14.70;96.70;;;;;;5393897;26;20003;-81
2024/04/13 05:17:18;;;;;;;7.35;4.10;;;14.70;96.70;;;;;;5375283;26;20010;-80
2024/04/13 05:19:49;;;;;;;5.97;4.25;;;14.80;96.70;;;;;;5375683;26;20000;-81
2024/04/13 05:22:20;;;;;;;5.30;4.28;;;14.80;96.70;;;;;;5370957;26;20503;-80
2024/04/13 05:24:52;;;;;;;6.20;4.43;;;14.90;96.70;;;;;;5389104;26;20010;-81
2024/04/13 05:27:22;;;;;;;5.55;3.63;;;14.80;96.70;;;;;;5397754;26;20000;-81
2024/04/13 05:29:53;;;;;;;4.78;4.13;;;14.80;96.70;;;;;;5405406;26;20982;-80
2024/04/13 05:32:25;;;;;;;7.38;4.63;;;14.90;96.70;;;;;;5373289;26;19996;-80
2024/04/13 05:34:54;;;;;;;8.85;6.28;;;14.90;96.70;;;;;;5388220;26;20011;-81
2024/04/13 05:37:25;;;;;;;10.52;8.40;;;14.90;96.70;;;;;;5386217;26;20064;-78
2024/04/13 05:39:54;;;;;;;10.45;6.47;;;14.90;96.70;;;;;;5407616;26;20004;-78
2024/04/13 05:42:25;;;;;;;6.30;5.47;;;15.00;96.70;;;;;;5376904;26;20004;-78
2024/04/13 05:44:59;;;;;;;6.43;4.95;;;15.00;96.70;;;;;;5370002;26;20012;-77
2024/04/13 05:47:32;;;;;;;6.03;4.97;;;15.00;96.70;;;;;;5375922;26;19999;-80
2024/04/13 05:50:04;;;;;;;8.02;5.20;;;15.10;96.70;;;;;;5379694;26;20004;-80
2024/04/13 05:52:34;;;;;;;8.52;5.55;;;15.10;96.70;;;;;;5376225;26;20022;-80
2024/04/13 05:55:04;;;;;;;7.68;5.78;;;15.20;96.70;;;;;;5402035;26;20009;-80
2024/04/13 05:57:37;;;;;;;8.57;6.50;;;15.20;96.70;;;;;;5405109;26;20586;-80
2024/04/13 06:00:09;;;;;;;11.23;7.25;;;15.30;96.70;;;;;;5370375;26;20132;-81
2024/04/13 06:02:41;;;;;;;10.68;8.25;;;15.40;96.70;;;;;;5397882;26;20008;-84
2024/04/13 06:05:11;;;;;;;12.45;9.25;;;15.40;96.70;;;;;;5371609;26;20978;-83
2024/04/13 06:07:41;;;;;;;13.88;9.80;;;15.40;96.70;;;;;;5376844;26;20018;-82
2024/04/13 06:10:09;;;;;;;16.45;9.82;;;15.40;96.70;;;;;;5392731;26;20073;-78
2024/04/13 06:12:39;;;;;;;13.50;9.65;;;15.40;96.70;;;;;;5429492;26;20001;-79
2024/04/13 06:15:09;;;;;;;13.77;10.35;;;15.50;96.70;;;;;;5361618;26;20004;-79
2024/04/13 06:17:41;;;;;;;15.10;10.45;;;15.50;96.70;;;;;;5375809;26;20013;-80
2024/04/13 06:20:11;;;;;;;17.70;10.68;;;15.60;96.70;;;;;;5433822;26;20007;-80
2024/04/13 06:22:39;;;;;;;13.80;10.88;;;15.60;96.70;;;;;;5373226;26;20027;-78
2024/04/13 06:25:10;;;;;;;19.75;11.77;;;15.70;96.70;;;;;;5374473;26;20003;-80
2024/04/13 06:27:41;;;;;;;14.65;11.85;;;15.80;96.70;;;;;;5379125;26;20395;-82
2024/04/13 06:30:13;;;;;;;18.63;13.55;;;15.90;96.70;;;;;;5413726;26;20017;-81
2024/04/13 06:32:46;;;;;;;19.25;13.90;;;16.00;96.70;;;;;;5407563;26;20000;-81
2024/04/13 06:35:16;;;;;;;18.85;13.50;;;16.10;96.70;;;;;;5373359;26;20000;-81
2024/04/13 06:37:46;;;;;;;22.58;15.27;;;16.10;96.70;;;;;;5394055;26;20073;-80
2024/04/13 06:40:18;;;;;;;21.50;13.60;;;16.20;96.70;;;;;;5378293;26;20003;-82
2024/04/13 06:42:46;;;;;;;18.95;14.13;;;16.30;96.70;;;;;;5378896;26;19999;-81
2024/04/13 06:45:16;;;;;;;18.38;14.65;;;16.40;96.70;;;;;;5350069;26;20020;-80
2024/04/13 06:47:48;;;;;;;17.35;12.68;;;16.50;96.70;;;;;;5408281;26;20003;-78
2024/04/13 06:50:18;;;;;;;19.75;13.65;;;16.50;96.70;;;;;;5367734;26;20356;-78
2024/04/13 06:52:49;;;;;;;19.63;14.77;;;16.60;96.70;;;;;;5408877;26;20778;-81
2024/04/13 06:55:18;;;;;;;20.65;14.02;;;16.60;96.70;;;;;;5379802;26;20007;-81
2024/04/13 06:57:46;;;;;;;14.75;11.43;;;16.70;96.70;;;;;;5395516;26;20000;-81
2024/04/13 07:00:18;;;;;;;17.00;11.38;;;16.80;96.70;;;;;;5378816;26;20700;-80
2024/04/13 07:02:51;;;;;;;16.38;11.60;;;16.90;96.70;;;;;;5408121;26;20007;-80
2024/04/13 07:05:20;;;;;;;16.90;11.27;;;17.00;96.70;;;;;;5409670;26;20134;-80
2024/04/13 07:07:50;;;;;;;13.73;10.88;;;17.00;96.70;;;;;;5407610;26;20035;-80
2024/04/13 07:10:21;;;;;;;13.43;10.88;;;17.00;96.70;;;;;;5372270;26;20004;-80
2024/04/13 07:12:50;;;;;;;14.40;11.38;;;17.10;96.70;;;;;;5407276;26;20011;-80
2024/04/13 07:15:19;;;;;;;15.20;10.77;;;17.10;96.70;;;;;;5377774;26;20022;-81
2024/04/13 07:17:51;;;;;;;16.85;11.07;;;17.20;96.70;;;;;;5408031;26;20043;-81
2024/04/13 07:20:21;;;;;;;17.42;11.77;;;17.30;96.70;;;;;;5370680;26;20032;-80
2024/04/13 07:22:52;;;;;;;15.10;11.23;;;17.40;96.70;;;;;;5407706;26;20064;-80
2024/04/13 07:25:22;;;;;;;14.45;10.63;;;17.50;96.70;;;;;;5407785;26;20856;-80
2024/04/13 07:27:51;;;;;;;12.82;10.45;;;17.60;96.70;;;;;;5379092;26;20073;-80
2024/04/13 07:30:20;;;;;;;14.00;11.45;;;17.70;96.70;;;;;;5408470;26;20088;-80
2024/04/13 07:32:52;;;;;;;17.35;11.25;;;17.70;96.70;;;;;;5378074;26;20018;-80
2024/04/13 07:35:22;;;;;;;16.58;11.60;;;17.80;96.70;;;;;;5376064;26;20010;-80
2024/04/13 07:37:50;;;;;;;13.50;10.73;;;17.90;96.70;;;;;;5397134;26;20064;-81
2024/04/13 07:40:20;;;;;;;13.50;11.77;;;18.00;96.70;;;;;;5406970;26;20010;-80
2024/04/13 07:42:49;;;;;;;12.10;10.80;;;18.00;96.70;;;;;;5378212;26;20081;-80
2024/04/13 07:45:19;;;;;;;15.35;11.82;;;18.10;96.70;;;;;;5365887;26;20770;-80
2024/04/13 07:47:51;;;;;;;17.70;12.60;;;18.30;96.70;;;;;;5378185;26;20007;-81
2024/04/13 07:50:21;;;;;;;16.10;12.18;;;18.30;96.70;;;;;;5364912;26;20036;-81
2024/04/13 07:52:52;;;;;;;13.65;10.70;;;18.50;96.70;;;;;;5378415;26;20011;-81
2024/04/13 07:55:21;;;;;;;12.45;9.32;;;18.60;96.70;;;;;;5373118;26;20012;-78
2024/04/13 07:57:50;;;;;;;13.68;10.02;;;18.60;96.70;;;;;;5378944;26;20007;-82
2024/04/13 08:00:18;;;;;;;13.10;9.93;;;18.80;96.70;;;;;;5377663;26;20453;-81
2024/04/13 08:02:54;;;;;;;12.10;10.43;;;18.90;96.70;;;;;;5379347;26;20036;-82
2024/04/13 08:05:23;;;;;;;12.85;10.18;;;19.00;96.70;;;;;;5383791;26;20051;-81
2024/04/13 08:07:52;;;;;;;10.90;9.70;;;19.10;96.70;;;;;;5370977;26;20133;-81
2024/04/13 08:10:21;;;;;;;9.85;8.48;;;19.20;96.70;;;;;;5398848;26;20018;-80
2024/04/13 08:12:51;;;;;;;12.48;8.43;;;19.30;96.70;;;;;;5405802;26;20026;-81
2024/04/13 08:15:20;;;;;;;9.50;8.10;;;19.40;96.70;;;;;;5377955;26;20004;-81
2024/04/13 08:17:49;;;;;;;11.68;9.15;;;19.50;96.70;;;;;;5377174;26;20010;-81
2024/04/13 08:20:20;;;;;;;9.18;8.27;;;19.60;96.70;;;;;;5406578;26;20897;-82
2024/04/13 08:22:49;;;;;;;9.85;8.60;;;19.70;96.70;;;;;;5434831;26;20000;-81
2024/04/13 08:25:19;;;;;;;8.70;7.43;;;19.80;96.70;;;;;;5406150;26;20011;-81
2024/04/13 08:27:49;;;;;;;9.95;8.00;;;19.90;96.70;;;;;;5376135;26;20023;-82
2024/04/13 08:30:17;;;;;;;9.90;7.15;;;20.00;96.70;;;;;;5407272;26;20077;-82
2024/04/13 08:32:48;;;;;;;11.60;7.30;;;20.20;96.70;;;;;;5378632;26;20000;-82
2024/04/13 08:35:16;;;;;;;9.35;7.35;;;20.30;96.70;;;;;;5407560;26;20000;-80
2024/04/13 08:37:49;;;;;;;10.63;8.00;;;20.30;96.70;;;;;;5377628;26;20011;-83
2024/04/13 08:40:19;;;;;;;10.98;7.60;;;20.40;96.70;;;;;;5408316;26;20104;-84
2024/04/13 08:42:52;;;;;;;10.32;7.88;;;20.60;96.70;;;;;;5379063;26;20004;-82
2024/04/13 08:45:24;;;;;;;9.15;7.28;;;20.70;96.70;;;;;;5373952;26;20022;-81
2024/04/13 08:47:54;;;;;;;9.35;7.47;;;20.70;96.70;;;;;;5380579;26;20077;-80
2024/04/13 08:50:23;;;;;;;10.95;7.20;;;20.70;96.70;;;;;;5404973;26;20004;-83
2024/04/13 08:52:55;;;;;;;8.05;7.10;;;20.80;96.70;;;;;;5391629;26;19995;-81
2024/04/13 08:55:25;;;;;;;10.80;7.25;;;21.00;96.70;;;;;;5407570;26;20015;-82
2024/04/13 08:57:54;;;;;;;9.80;7.65;;;21.10;96.70;;;;;;5378814;26;20017;-82
2024/04/13 09:00:24;;;;;;;11.00;7.30;;;21.20;96.70;;;;;;5376199;26;20395;-82
2024/04/13 09:02:56;;;;;;;11.98;7.80;;;21.40;96.70;;;;;;5363066;26;20010;-81
2024/04/13 09:05:26;;;;;;;7.80;6.95;;;21.50;96.70;;;;;;5405992;26;19999;-81
2024/04/13 09:08:03;;;;;;;11.63;8.32;;;21.60;96.70;;;;;;5406055;26;20055;-82
2024/04/13 09:10:36;;;;;;;12.27;7.78;;;21.60;96.70;;;;;;5376294;26;20010;-81
2024/04/13 09:13:05;;;;;;;11.18;10.07;;;21.70;96.70;;;;;;5391668;26;20044;-80
2024/04/13 09:15:35;;;;;;;10.55;7.28;;;21.80;96.70;;;;;;5405726;26;20453;-80
2024/04/13 09:18:04;;;;;;;9.02;6.78;;;21.90;96.70;;;;;;5372287;26;20007;-80
2024/04/13 09:20:34;;;;;;;8.60;7.25;;;22.00;96.70;;;;;;5400238;26;20029;-81
2024/04/13 09:23:06;;;;;;;9.13;7.43;;;22.10;96.70;;;;;;5405769;26;20756;-81
2024/04/13 09:25:35;;;;;;;8.35;7.35;;;22.20;96.70;;;;;;5376528;26;20012;-80
2024/04/13 09:28:04;;;;;;;12.32;8.13;;;22.40;96.70;;;;;;5405512;26;19999;-82
2024/04/13 09:30:33;;;;;;;10.60;7.72;;;22.40;96.70;;;;;;5406010;26;20027;-81
2024/04/13 09:33:10;;;;;;;8.52;7.60;;;22.50;96.70;;;;;;5405871;26;20384;-80
2024/04/13 09:35:38;;;;;;;10.80;9.25;;;22.60;96.70;;;;;;5371492;26;20008;-80
2024/04/13 09:38:16;;;;;;;16.08;9.73;;;22.70;96.70;;;;;;5376990;26;19996;-81
2024/04/13 09:40:46;;;;;;;10.90;8.25;;;22.80;96.70;;;;;;5375982;26;20441;-80
2024/04/13 09:43:20;;;;;;;9.43;7.35;;;22.90;96.70;;;;;;5370010;26;20035;-81
2024/04/13 09:45:56;;;;;;;9.35;7.65;;;22.90;96.70;;;;;;5407264;26;20504;-80
2024/04/13 09:48:24;;;;;;;13.43;9.80;;;22.90;96.70;;;;;;5375953;26;20031;-81
2024/04/13 09:50:58;;;;;;;9.55;7.70;;;22.90;96.70;;;;;;5377713;26;19999;-81
2024/04/13 09:53:32;;;;;;;11.25;7.15;;;22.90;96.70;;;;;;5375810;26;20005;-80
2024/04/13 09:56:02;;;;;;;12.02;8.90;;;22.90;96.70;;;;;;5371578;26;20001;-80
2024/04/13 09:58:30;;;;;;;25.95;14.35;;;23.00;96.70;;;;;;5376168;26;20575;-82
2024/04/13 10:01:04;;;;;;;12.38;9.32;;;23.20;96.70;;;;;;5393853;26;20003;-81
2024/04/13 10:03:34;;;;;;;9.52;7.60;;;23.40;96.70;;;;;;5373083;26;20055;-82
2024/04/13 10:06:09;;;;;;;11.35;6.95;;;23.40;96.70;;;;;;5375787;26;20379;-80
2024/04/13 10:08:41;;;;;;;9.98;6.38;;;23.50;96.70;;;;;;5389146;26;20019;-81
2024/04/13 10:11:15;;;;;;;9.40;6.45;;;23.60;96.70;;;;;;5376039;26;20012;-80
2024/04/13 10:13:47;;;;;;;9.13;6.22;;;23.70;96.70;;;;;;5398982;26;20027;-80
2024/04/13 10:16:16;;;;;;;10.15;5.75;;;23.70;96.70;;;;;;5388158;26;20027;-80
2024/04/13 10:18:48;;;;;;;9.35;5.68;;;23.90;96.70;;;;;;5392303;26;20011;-80
2024/04/13 10:21:21;;;;;;;7.53;5.22;;;24.00;96.70;;;;;;5405501;26;19999;-80
2024/04/13 10:23:57;;;;;;;7.60;5.93;;;24.30;96.70;;;;;;5371966;26;20015;-81
2024/04/13 10:26:26;;;;;;;8.13;5.40;;;24.50;96.70;;;;;;5403089;26;20409;-80
2024/04/13 10:28:58;;;;;;;8.57;5.00;;;24.60;96.70;;;;;;5375458;26;20000;-80
2024/04/13 10:31:31;;;;;;;6.30;4.88;;;24.80;96.70;;;;;;5391827;26;20007;-80
2024/04/13 10:34:02;;;;;;;6.85;5.45;;;25.00;96.70;;;;;;5376639;26;20000;-81
2024/04/13 10:36:32;;;;;;;13.75;5.50;;;24.90;96.70;;;;;;5375436;26;20484;-81
2024/04/13 10:39:05;;;;;;;8.93;5.55;;;25.10;96.70;;;;;;5374990;26;20478;-80
2024/04/13 10:41:36;;;;;;;5.57;4.97;;;25.20;96.70;;;;;;5404479;26;20098;-81
2024/04/13 10:44:05;;;;;;;7.57;4.90;;;25.40;96.70;;;;;;5402862;26;19996;-80
2024/04/13 10:46:36;;;;;;;6.60;4.43;;;25.60;96.70;;;;;;5403886;26;19996;-80
2024/04/13 10:49:05;;;;;;;5.80;4.43;;;25.80;96.70;;;;;;5375058;26;20073;-80
2024/04/13 10:51:34;;;;;;;7.82;4.72;;;25.90;96.70;;;;;;5403390;26;20053;-80
2024/04/13 10:54:12;;;;;;;7.47;4.65;;;25.90;96.70;;;;;;5403697;26;20005;-81
2024/04/13 10:56:44;;;;;;;8.80;4.70;;;26.00;96.70;;;;;;5400030;26;20007;-81
2024/04/13 10:59:13;;;;;;;7.25;4.00;;;26.00;96.70;;;;;;5395936;26;20015;-78
2024/04/13 11:01:43;;;;;;;8.93;4.90;;;26.10;96.70;;;;;;5376059;26;20020;-84
2024/04/13 11:04:13;;;;;;;9.57;5.38;;;26.10;96.70;;;;;;5405426;26;20090;-82
2024/04/13 11:06:42;;;;;;;7.28;4.57;;;26.30;96.70;;;;;;5377462;26;20066;-83
2024/04/13 11:09:14;;;;;;;7.18;4.30;;;26.40;96.70;;;;;;5405866;26;20792;-84
2024/04/13 11:11:42;;;;;;;5.57;4.25;;;26.40;96.70;;;;;;5377301;26;20417;-84
2024/04/13 11:14:11;;;;;;;6.45;4.82;;;26.50;96.70;;;;;;5408523;26;20007;-82
2024/04/13 11:16:41;;;;;;;7.90;4.55;;;26.50;96.70;;;;;;5376335;26;20021;-83
2024/04/13 11:19:09;;;;;;;12.38;8.43;;;26.60;96.70;;;;;;5408519;26;19999;-82
2024/04/13 11:21:38;;;;;;;6.85;4.63;;;26.80;96.70;;;;;;5373207;26;20016;-85
2024/04/13 11:24:09;;;;;;;6.50;3.80;;;26.80;96.70;;;;;;5428852;26;20004;-83
2024/04/13 11:26:41;;;;;;;5.28;3.97;;;26.80;96.70;;;;;;5408193;26;20012;-83
2024/04/13 11:29:10;;;;;;;5.47;3.63;;;27.00;96.70;;;;;;5373260;26;20007;-83
2024/04/13 11:31:40;;;;;;;6.90;3.70;;;27.20;96.70;;;;;;5379276;26;20026;-84
2024/04/13 11:34:09;;;;;;;6.20;3.35;;;27.30;96.70;;;;;;5406555;26;19999;-83
2024/04/13 11:36:39;;;;;;;6.05;3.63;;;27.50;96.70;;;;;;5378844;26;20015;-83
2024/04/13 11:39:10;;;;;;;5.82;3.35;;;27.50;96.70;;;;;;5407538;26;20749;-82
2024/04/13 11:41:41;;;;;;;4.70;3.40;;;27.70;96.70;;;;;;5406852;26;20007;-81
2024/04/13 11:44:09;;;;;;;4.72;3.45;;;27.80;96.70;;;;;;5408132;26;19996;-81
2024/04/13 11:46:38;;;;;;;6.47;4.00;;;28.00;96.70;;;;;;5408384;26;19999;-81
2024/04/13 11:49:06;;;;;;;5.72;3.53;;;28.10;96.70;;;;;;5379364;26;19999;-81
2024/04/13 11:51:37;;;;;;;5.75;3.17;;;28.10;96.70;;;;;;5373940;26;20004;-82
2024/04/13 11:54:05;;;;;;;6.22;3.28;;;28.20;96.70;;;;;;5379399;26;20015;-81
2024/04/13 11:56:43;;;;;;;5.57;3.05;;;28.10;96.70;;;;;;5369298;26;20011;-81
2024/04/13 11:59:14;;;;;;;5.40;3.53;;;28.00;96.70;;;;;;5375326;26;20088;-80
2024/04/13 12:01:42;;;;;;;6.15;3.47;;;28.10;96.70;;;;;;5371775;26;20484;-80
2024/04/13 12:04:13;;;;;;;4.47;2.95;;;28.20;96.70;;;;;;5379710;26;20364;-81
2024/04/13 12:06:43;;;;;;;4.07;3.20;;;28.50;96.70;;;;;;5408238;26;20111;-81
2024/04/13 12:09:13;;;;;;;4.10;3.30;;;28.70;96.70;;;;;;5406387;26;20014;-83
2024/04/13 12:11:45;;;;;;;8.38;3.53;;;28.80;96.70;;;;;;5379056;26;19996;-82
2024/04/13 12:14:14;;;;;;;5.93;3.45;;;28.90;96.70;;;;;;5378204;26;20008;-82
2024/04/13 12:16:45;;;;;;;6.50;3.30;;;29.00;96.70;;;;;;5378577;26;20398;-82
2024/04/13 12:19:14;;;;;;;4.28;2.92;;;29.20;96.70;;;;;;5369737;26;20000;-83
2024/04/13 12:21:43;;;;;;;6.22;2.67;;;29.10;96.70;;;;;;5407647;26;20004;-82
2024/04/13 12:24:11;;;;;;;4.65;2.60;;;29.10;96.70;;;;;;5373031;26;20008;-82
2024/04/13 12:26:39;;;;;;;5.22;3.10;;;29.20;96.70;;;;;;5408264;26;20419;-83
2024/04/13 12:29:14;;;;;;;4.15;2.60;;;29.40;96.70;;;;;;5379182;26;20471;-82
2024/04/13 12:31:43;;;;;;;4.10;2.53;;;29.50;96.70;;;;;;5407489;26;20015;-82
2024/04/13 12:34:11;;;;;;;4.72;2.35;;;29.50;96.70;;;;;;5378172;26;19999;-83
2024/04/13 12:36:42;;;;;;;2.40;2.20;;;29.60;96.70;;;;;;5407249;26;19999;-83
2024/04/13 12:39:10;;;;;;;4.72;2.80;;;29.70;96.70;;;;;;5372505;26;20007;-83
2024/04/13 12:41:40;;;;;;;4.22;2.50;;;29.70;96.70;;;;;;5375234;26;20004;-83
2024/04/13 12:44:13;;;;;;;3.08;2.17;;;29.80;96.70;;;;;;5407700;26;20384;-83
2024/04/13 12:46:44;;;;;;;4.28;2.60;;;29.80;96.70;;;;;;5407361;26;20012;-82
2024/04/13 12:49:13;;;;;;;6.63;2.30;;;29.80;96.70;;;;;;5378348;26;20009;-83
2024/04/13 12:51:43;;;;;;;2.90;2.08;;;29.80;96.70;;;;;;5406807;26;20012;-82
2024/04/13 12:54:11;;;;;;;3.53;2.13;;;29.80;96.70;;;;;;5378461;26;20034;-82
2024/04/13 12:56:41;;;;;;;4.03;2.30;;;30.00;96.70;;;;;;5407842;26;20008;-82
2024/04/13 12:59:09;;;;;;;4.90;2.30;;;30.20;96.70;;;;;;5375398;26;20018;-81